Time;durP1;ratioP1;P1;durP2;ratioP2;P2;SDS_P1;SDS_P2;PMS_P1;PMS_P2;Temp;Humidity;BMP_temperature;BMP_pressure;BME280_temperature;BME280_humidity;BME280_pressure;Samples;Min_cycle;Max_cycle;Signal;HPM_P1;HPM_P2
2021/10/10 00:00:15;;;;;;;12.63;6.13;;;9.60;95.00;;;;;;5101936;28;20021;-81
2021/10/10 00:02:41;;;;;;;11.40;6.07;;;9.60;94.90;;;;;;5103934;28;20053;-82
2021/10/10 00:05:08;;;;;;;12.43;6.00;;;9.60;94.90;;;;;;5114908;28;20374;-82
2021/10/10 00:07:34;;;;;;;13.55;6.32;;;9.60;94.80;;;;;;5108589;28;20063;-81
2021/10/10 00:09:59;;;;;;;14.82;6.15;;;9.60;94.80;;;;;;5100554;28;20032;-81
2021/10/10 00:12:25;;;;;;;12.05;6.53;;;9.60;94.60;;;;;;5085726;28;20502;-80
2021/10/10 00:14:51;;;;;;;11.23;5.97;;;9.50;94.60;;;;;;5096336;28;20039;-80
2021/10/10 00:17:16;;;;;;;11.93;6.03;;;9.50;94.60;;;;;;5099238;28;20031;-85
2021/10/10 00:19:42;;;;;;;10.40;5.35;;;9.50;94.60;;;;;;5143427;27;20078;-81
2021/10/10 00:22:08;;;;;;;11.35;5.90;;;9.50;94.60;;;;;;5113138;28;20068;-81
2021/10/10 00:24:33;;;;;;;12.75;6.30;;;9.50;94.60;;;;;;5104546;28;20028;-81
2021/10/10 00:26:59;;;;;;;10.32;5.82;;;9.40;94.60;;;;;;5095271;28;20461;-80
2021/10/10 00:29:25;;;;;;;11.57;6.22;;;9.40;94.60;;;;;;5095863;28;20531;-80
2021/10/10 00:31:50;;;;;;;8.95;6.00;;;9.40;94.60;;;;;;5096292;28;20483;-81
2021/10/10 00:34:16;;;;;;;11.80;5.78;;;9.40;94.60;;;;;;5095674;28;20051;-80
2021/10/10 00:36:42;;;;;;;12.60;6.53;;;9.40;94.60;;;;;;5097333;28;20111;-80
2021/10/10 00:39:07;;;;;;;13.27;6.28;;;9.30;94.70;;;;;;5095257;28;20028;-83
2021/10/10 00:41:36;;;;;;;11.77;6.10;;;9.30;94.70;;;;;;5094991;28;20035;-80
2021/10/10 00:44:11;;;;;;;12.55;6.07;;;9.30;94.70;;;;;;5094728;28;20058;-80
2021/10/10 00:46:38;;;;;;;13.60;6.00;;;9.30;94.70;;;;;;5086129;28;20461;-80
2021/10/10 00:49:04;;;;;;;14.18;6.60;;;9.30;94.90;;;;;;5080635;28;20036;-80
2021/10/10 00:51:34;;;;;;;11.50;5.82;;;9.30;94.80;;;;;;5075816;28;20029;-79
2021/10/10 00:54:01;;;;;;;12.73;6.10;;;9.30;95.00;;;;;;5088539;28;20020;-79
2021/10/10 00:56:27;;;;;;;12.88;5.97;;;9.30;94.90;;;;;;5094426;28;20098;-80
2021/10/10 00:58:55;;;;;;;14.27;6.57;;;9.30;94.80;;;;;;5095843;28;20016;-80
2021/10/10 01:01:22;;;;;;;11.45;6.00;;;9.20;94.80;;;;;;5094617;28;20028;-80
2021/10/10 01:03:47;;;;;;;11.82;5.47;;;9.20;94.70;;;;;;5095192;28;20035;-79
2021/10/10 01:06:15;;;;;;;8.93;5.35;;;9.10;94.70;;;;;;5095448;28;20035;-80
2021/10/10 01:08:40;;;;;;;16.23;6.32;;;9.10;94.70;;;;;;5095181;28;20024;-80
2021/10/10 01:11:07;;;;;;;13.05;6.03;;;9.10;94.80;;;;;;5095004;28;20028;-80
2021/10/10 01:13:33;;;;;;;11.23;5.30;;;9.10;94.90;;;;;;5094287;28;20024;-80
2021/10/10 01:15:58;;;;;;;14.00;6.15;;;9.10;94.90;;;;;;5093628;28;20123;-80
2021/10/10 01:18:25;;;;;;;11.90;5.30;;;9.10;94.70;;;;;;5095402;28;20063;-80
2021/10/10 01:20:52;;;;;;;13.20;5.63;;;9.10;94.80;;;;;;5095557;28;20020;-80
2021/10/10 01:23:19;;;;;;;11.18;6.05;;;9.10;94.80;;;;;;5091376;28;20051;-82
2021/10/10 01:25:45;;;;;;;11.20;5.88;;;9.10;94.90;;;;;;5094883;28;20024;-80
2021/10/10 01:28:10;;;;;;;13.00;5.68;;;9.00;94.80;;;;;;5094307;28;20120;-86
2021/10/10 01:30:36;;;;;;;12.30;6.15;;;9.00;94.90;;;;;;5094423;28;20020;-82
2021/10/10 01:33:06;;;;;;;11.82;6.03;;;9.00;94.80;;;;;;5094346;28;20056;-81
2021/10/10 01:35:32;;;;;;;13.80;5.80;;;8.90;94.80;;;;;;5094944;28;20024;-81
2021/10/10 01:37:57;;;;;;;15.10;5.68;;;8.90;94.80;;;;;;5099082;28;20035;-81
2021/10/10 01:40:23;;;;;;;10.07;5.68;;;8.90;95.10;;;;;;5093502;28;20488;-79
2021/10/10 01:42:48;;;;;;;11.32;5.25;;;8.80;95.10;;;;;;5095124;28;20032;-80
2021/10/10 01:45:16;;;;;;;12.10;5.90;;;8.80;95.10;;;;;;5093478;28;20028;-82
2021/10/10 01:47:42;;;;;;;12.65;5.55;;;8.90;95.00;;;;;;5095607;28;20020;-80
2021/10/10 01:50:08;;;;;;;15.20;6.20;;;8.80;94.90;;;;;;5095206;28;20424;-81
2021/10/10 01:52:34;;;;;;;11.60;5.60;;;8.80;94.90;;;;;;5093220;28;20034;-81
2021/10/10 01:55:00;;;;;;;10.27;5.35;;;8.80;94.80;;;;;;5093628;28;20443;-81
2021/10/10 01:57:25;;;;;;;11.63;5.50;;;8.70;94.80;;;;;;5093270;28;20036;-80
2021/10/10 01:59:51;;;;;;;11.10;5.68;;;8.70;95.00;;;;;;5093701;28;20020;-81
2021/10/10 02:02:16;;;;;;;14.80;5.63;;;8.70;95.10;;;;;;5092653;28;20028;-81
2021/10/10 02:04:42;;;;;;;11.32;5.45;;;8.60;95.10;;;;;;5093722;28;20028;-81
2021/10/10 02:07:08;;;;;;;10.55;5.28;;;8.60;94.90;;;;;;5093961;28;20028;-80
2021/10/10 02:09:36;;;;;;;11.02;5.03;;;8.60;94.80;;;;;;5093912;28;20503;-81
2021/10/10 02:12:02;;;;;;;13.50;6.20;;;8.60;94.90;;;;;;5093523;28;20576;-81
2021/10/10 02:14:27;;;;;;;14.85;6.63;;;8.60;95.00;;;;;;5094133;28;20048;-81
2021/10/10 02:16:53;;;;;;;11.73;5.80;;;8.50;94.90;;;;;;5093590;28;20036;-81
2021/10/10 02:19:19;;;;;;;11.30;5.40;;;8.50;95.00;;;;;;5092975;28;20488;-81
2021/10/10 02:21:44;;;;;;;14.15;6.05;;;8.50;95.20;;;;;;5093661;28;20140;-81
2021/10/10 02:24:10;;;;;;;12.50;5.45;;;8.50;95.00;;;;;;5093471;28;20550;-80
2021/10/10 02:26:37;;;;;;;12.85;5.85;;;8.40;95.00;;;;;;5093191;28;20034;-81
2021/10/10 02:29:03;;;;;;;10.45;5.35;;;8.50;95.10;;;;;;5093448;28;20127;-80
2021/10/10 02:31:28;;;;;;;11.45;5.80;;;8.40;95.10;;;;;;5093902;28;20452;-82
2021/10/10 02:33:54;;;;;;;10.95;5.70;;;8.40;95.10;;;;;;5093307;28;20099;-81
2021/10/10 02:36:20;;;;;;;9.55;5.40;;;8.40;95.00;;;;;;5093093;28;20392;-81
2021/10/10 02:38:45;;;;;;;13.30;5.72;;;8.30;95.00;;;;;;5092939;28;20035;-81
2021/10/10 02:41:11;;;;;;;11.02;6.18;;;8.30;95.00;;;;;;5093645;28;20024;-81
2021/10/10 02:43:36;;;;;;;13.23;5.68;;;8.30;95.10;;;;;;5092747;28;20024;-82
2021/10/10 02:46:02;;;;;;;10.10;5.85;;;8.30;95.10;;;;;;5093545;28;20032;-80
2021/10/10 02:48:28;;;;;;;11.35;6.28;;;8.30;95.20;;;;;;5093901;28;20154;-81
2021/10/10 02:50:53;;;;;;;11.90;5.43;;;8.30;95.10;;;;;;5093585;28;20038;-82
2021/10/10 02:53:19;;;;;;;11.27;5.70;;;8.30;95.10;;;;;;5093059;28;20067;-82
2021/10/10 02:55:44;;;;;;;11.05;5.78;;;8.30;95.20;;;;;;5093580;28;20035;-80
2021/10/10 02:58:10;;;;;;;9.75;5.28;;;8.20;95.10;;;;;;5092973;28;20067;-81
2021/10/10 03:00:36;;;;;;;13.27;6.05;;;8.20;95.20;;;;;;5093842;28;20028;-81
2021/10/10 03:03:01;;;;;;;12.25;5.72;;;8.20;95.30;;;;;;5092935;28;20036;-81
2021/10/10 03:05:27;;;;;;;12.45;6.22;;;8.20;95.30;;;;;;5092461;28;20032;-81
2021/10/10 03:07:52;;;;;;;11.10;5.65;;;8.20;95.40;;;;;;5093720;28;20044;-81
2021/10/10 03:10:18;;;;;;;12.75;5.57;;;8.10;95.30;;;;;;5092532;28;20034;-81
2021/10/10 03:12:44;;;;;;;11.50;5.68;;;8.10;95.30;;;;;;5092530;28;20031;-81
2021/10/10 03:15:09;;;;;;;9.60;5.32;;;8.10;95.40;;;;;;5093063;28;20156;-81
2021/10/10 03:17:35;;;;;;;11.52;5.65;;;8.00;95.30;;;;;;5092601;28;20122;-81
2021/10/10 03:20:00;;;;;;;10.43;5.60;;;8.00;95.20;;;;;;5093364;28;20054;-82
2021/10/10 03:22:26;;;;;;;14.07;5.63;;;7.90;95.20;;;;;;5094777;28;20066;-81
2021/10/10 03:24:52;;;;;;;12.65;5.13;;;7.90;95.30;;;;;;5098041;28;20044;-81
2021/10/10 03:27:17;;;;;;;11.18;5.43;;;7.90;95.40;;;;;;5096470;28;20107;-82
2021/10/10 03:29:43;;;;;;;12.25;5.63;;;7.90;95.50;;;;;;5096946;28;20028;-81
2021/10/10 03:32:09;;;;;;;12.50;5.85;;;7.90;95.50;;;;;;5096833;28;20457;-81
2021/10/10 03:34:34;;;;;;;9.52;5.72;;;7.90;95.50;;;;;;5096289;28;20028;-81
2021/10/10 03:37:00;;;;;;;11.93;5.78;;;7.80;95.30;;;;;;5096769;28;20040;-81
2021/10/10 03:39:25;;;;;;;11.23;5.32;;;7.80;95.50;;;;;;5096343;28;20081;-81
2021/10/10 03:41:51;;;;;;;10.20;5.18;;;7.70;95.60;;;;;;5097796;28;20093;-81
2021/10/10 03:44:16;;;;;;;11.32;6.07;;;7.70;95.70;;;;;;5096147;28;20032;-85
2021/10/10 03:46:42;;;;;;;14.52;6.05;;;7.60;95.60;;;;;;5097468;28;20060;-81
2021/10/10 03:49:08;;;;;;;11.55;5.55;;;7.70;95.50;;;;;;5097297;28;20381;-82
2021/10/10 03:51:33;;;;;;;10.93;5.20;;;7.70;95.40;;;;;;5096990;28;20076;-81
2021/10/10 03:56:43;;;;;;;13.35;5.50;;;7.60;95.50;;;;;;5097270;28;20055;-81
2021/10/10 03:59:08;;;;;;;10.88;5.40;;;7.60;95.70;;;;;;5096371;28;20040;-81
2021/10/10 04:01:37;;;;;;;10.10;5.20;;;7.60;95.90;;;;;;5095893;28;20024;-81
2021/10/10 04:04:03;;;;;;;9.70;5.43;;;7.50;95.90;;;;;;5096228;28;20029;-81
2021/10/10 04:06:28;;;;;;;10.50;5.38;;;7.50;95.90;;;;;;5095965;28;20050;-81
2021/10/10 04:08:54;;;;;;;11.50;5.53;;;7.40;95.80;;;;;;5096940;28;20028;-81
2021/10/10 04:11:19;;;;;;;10.15;5.07;;;7.50;95.80;;;;;;5095346;28;20028;-82
2021/10/10 04:13:45;;;;;;;9.45;4.90;;;7.50;95.70;;;;;;5096096;28;20024;-81
2021/10/10 04:16:11;;;;;;;11.67;5.30;;;7.40;95.70;;;;;;5095851;28;20111;-81
2021/10/10 04:18:36;;;;;;;8.38;5.07;;;7.40;95.80;;;;;;5095417;28;20133;-81
2021/10/10 04:21:04;;;;;;;12.25;5.63;;;7.40;96.10;;;;;;5095838;28;20024;-81
2021/10/10 04:23:30;;;;;;;12.15;4.95;;;7.40;95.90;;;;;;5095221;28;20040;-81
2021/10/10 04:25:56;;;;;;;12.15;5.72;;;7.40;95.80;;;;;;5095709;28;20028;-81
2021/10/10 04:28:21;;;;;;;9.70;5.13;;;7.40;95.60;;;;;;5096592;28;20377;-82
2021/10/10 04:30:47;;;;;;;10.77;4.95;;;7.40;95.60;;;;;;5095684;28;20031;-80
2021/10/10 04:33:13;;;;;;;11.13;5.47;;;7.40;95.50;;;;;;5094817;28;20540;-81
2021/10/10 04:35:38;;;;;;;11.33;5.63;;;7.30;95.70;;;;;;5094720;28;20063;-81
2021/10/10 04:38:04;;;;;;;11.27;5.50;;;7.30;95.60;;;;;;5095074;28;20469;-81
2021/10/10 04:40:29;;;;;;;10.35;5.00;;;7.20;95.50;;;;;;5095879;28;20070;-81
2021/10/10 04:42:55;;;;;;;10.63;5.30;;;7.20;95.60;;;;;;5095961;28;20485;-81
2021/10/10 04:45:21;;;;;;;13.50;5.78;;;7.20;95.70;;;;;;5096473;28;20024;-82
2021/10/10 04:47:46;;;;;;;13.52;5.10;;;7.20;95.70;;;;;;5095460;28;20028;-81
2021/10/10 04:50:12;;;;;;;10.38;5.18;;;7.20;95.60;;;;;;5096469;28;20089;-81
2021/10/10 04:52:38;;;;;;;9.95;5.05;;;7.20;95.70;;;;;;5094455;28;20354;-81
2021/10/10 04:55:05;;;;;;;9.50;5.43;;;7.20;95.80;;;;;;5096545;28;20033;-81
2021/10/10 04:57:30;;;;;;;15.40;5.55;;;7.20;95.70;;;;;;5095334;28;20463;-82
2021/10/10 04:59:56;;;;;;;11.40;5.55;;;7.10;95.70;;;;;;5095274;28;20062;-81
2021/10/10 05:02:23;;;;;;;10.82;4.97;;;7.10;95.90;;;;;;5094130;28;20484;-83
2021/10/10 05:04:49;;;;;;;10.73;5.40;;;7.20;95.80;;;;;;5094890;28;20127;-82
2021/10/10 05:07:16;;;;;;;13.73;5.70;;;7.30;95.70;;;;;;5095062;28;20465;-81
2021/10/10 05:09:42;;;;;;;9.82;5.25;;;7.30;95.60;;;;;;5094377;28;20511;-82
2021/10/10 05:12:08;;;;;;;11.40;4.90;;;7.30;95.60;;;;;;5094960;28;20032;-81
2021/10/10 05:14:33;;;;;;;17.92;5.13;;;7.30;95.50;;;;;;5094518;28;20384;-81
2021/10/10 05:16:59;;;;;;;9.50;5.32;;;7.30;95.60;;;;;;5094732;28;20145;-81
2021/10/10 05:19:25;;;;;;;11.48;5.13;;;7.20;95.80;;;;;;5094198;28;20027;-82
2021/10/10 05:21:51;;;;;;;8.80;5.07;;;7.20;96.00;;;;;;5094375;28;20077;-82
2021/10/10 05:24:16;;;;;;;14.07;6.30;;;7.10;96.10;;;;;;5094751;28;20480;-82
2021/10/10 05:26:42;;;;;;;12.65;5.72;;;7.10;96.20;;;;;;5093721;28;20434;-82
2021/10/10 05:29:08;;;;;;;10.98;5.53;;;7.10;96.10;;;;;;5094435;28;20060;-82
2021/10/10 05:31:33;;;;;;;13.18;6.30;;;7.10;96.30;;;;;;5093993;28;20408;-81
2021/10/10 05:34:00;;;;;;;11.13;5.72;;;7.10;96.40;;;;;;5095182;28;20028;-81
2021/10/10 05:36:27;;;;;;;14.30;6.68;;;7.10;96.40;;;;;;5093741;28;20092;-82
2021/10/10 05:38:53;;;;;;;14.43;6.03;;;7.00;96.40;;;;;;5095282;28;20085;-81
2021/10/10 05:41:18;;;;;;;10.93;5.90;;;7.00;96.50;;;;;;5093942;28;20031;-81
2021/10/10 05:43:44;;;;;;;15.25;6.45;;;7.00;96.50;;;;;;5094849;28;20420;-81
2021/10/10 05:46:10;;;;;;;11.30;5.97;;;6.90;96.30;;;;;;5093059;28;20032;-81
2021/10/10 05:48:36;;;;;;;11.47;5.67;;;6.90;96.30;;;;;;5093564;28;20032;-82
2021/10/10 05:51:01;;;;;;;11.73;5.80;;;6.90;96.40;;;;;;5093787;28;20032;-81
2021/10/10 05:53:27;;;;;;;15.50;5.60;;;6.90;96.30;;;;;;5094181;28;20028;-81
2021/10/10 05:56:03;;;;;;;11.23;5.83;;;6.90;96.40;;;;;;5093852;28;20043;-81
2021/10/10 05:58:31;;;;;;;9.82;5.30;;;6.90;96.70;;;;;;5094667;28;20093;-82
2021/10/10 06:00:57;;;;;;;13.73;6.03;;;6.90;96.40;;;;;;5094961;28;20454;-81
2021/10/10 06:03:23;;;;;;;11.73;5.50;;;6.80;96.30;;;;;;5093869;28;20035;-82
2021/10/10 06:05:49;;;;;;;10.20;5.47;;;6.80;96.20;;;;;;5093205;28;20046;-82
2021/10/10 06:08:14;;;;;;;12.40;6.17;;;6.80;96.10;;;;;;5093614;28;20031;-82
2021/10/10 06:10:42;;;;;;;10.53;5.93;;;6.80;96.40;;;;;;5094094;28;20024;-81
2021/10/10 06:13:08;;;;;;;11.70;5.93;;;6.90;96.50;;;;;;5093732;28;20028;-81
2021/10/10 06:15:34;;;;;;;11.93;6.00;;;6.90;96.20;;;;;;5093252;28;20055;-81
2021/10/10 06:18:00;;;;;;;11.83;5.33;;;6.90;96.20;;;;;;5093724;28;20469;-81
2021/10/10 06:20:26;;;;;;;12.90;5.67;;;6.90;96.20;;;;;;5093402;28;20043;-84
2021/10/10 06:22:52;;;;;;;10.67;5.80;;;6.90;96.20;;;;;;5094131;28;20376;-81
2021/10/10 06:25:17;;;;;;;11.37;5.03;;;6.90;96.00;;;;;;5093634;28;20024;-80
2021/10/10 06:27:43;;;;;;;9.90;5.33;;;7.00;96.00;;;;;;5093194;28;20384;-81
2021/10/10 06:30:09;;;;;;;13.47;5.40;;;7.00;96.20;;;;;;5094432;28;20036;-81
2021/10/10 06:32:35;;;;;;;11.43;5.97;;;7.00;96.30;;;;;;5093271;28;20366;-81
2021/10/10 06:35:01;;;;;;;10.65;5.90;;;7.10;96.30;;;;;;5093395;28;20028;-80
2021/10/10 06:37:27;;;;;;;10.63;5.68;;;7.10;96.20;;;;;;5093989;28;20446;-86
2021/10/10 06:39:52;;;;;;;13.23;5.97;;;7.10;96.20;;;;;;5093552;28;20034;-81
2021/10/10 06:42:18;;;;;;;11.35;6.07;;;7.20;96.10;;;;;;5093721;28;20461;-81
2021/10/10 06:44:44;;;;;;;13.03;6.03;;;7.20;95.90;;;;;;5092971;28;20093;-81
2021/10/10 06:47:10;;;;;;;12.07;6.35;;;7.20;96.00;;;;;;5093231;28;20035;-81
2021/10/10 06:49:35;;;;;;;13.77;6.57;;;7.30;96.00;;;;;;5094087;28;20020;-81
2021/10/10 06:52:01;;;;;;;15.07;6.70;;;7.30;96.00;;;;;;5094296;28;20442;-80
2021/10/10 06:54:27;;;;;;;11.33;6.47;;;7.30;95.80;;;;;;5093537;28;20019;-82
2021/10/10 06:56:53;;;;;;;12.40;6.17;;;7.40;95.60;;;;;;5092765;28;20485;-81
2021/10/10 06:59:18;;;;;;;12.77;6.03;;;7.40;95.60;;;;;;5094628;28;20032;-81
2021/10/10 07:01:44;;;;;;;13.47;6.27;;;7.40;95.60;;;;;;5092661;28;20026;-82
2021/10/10 07:04:10;;;;;;;12.10;6.18;;;7.40;95.50;;;;;;5092976;28;20522;-82
2021/10/10 07:06:36;;;;;;;13.43;6.40;;;7.50;95.60;;;;;;5092857;28;20036;-81
2021/10/10 07:09:01;;;;;;;14.38;6.65;;;7.50;95.70;;;;;;5093332;28;20024;-81
2021/10/10 07:11:27;;;;;;;14.68;7.10;;;7.50;95.50;;;;;;5093140;28;20024;-81
2021/10/10 07:13:53;;;;;;;15.68;6.63;;;7.50;95.50;;;;;;5092807;28;20072;-81
2021/10/10 07:16:25;;;;;;;13.70;6.80;;;7.60;95.50;;;;;;5093182;28;20066;-81
2021/10/10 07:18:52;;;;;;;15.85;7.18;;;7.60;95.50;;;;;;5094024;28;20112;-81
2021/10/10 07:26:18;;;;;;;15.75;8.23;;;7.60;95.40;;;;;;5094159;28;20028;-81
2021/10/10 07:28:44;;;;;;;17.40;6.72;;;7.70;95.40;;;;;;5092447;28;20051;-81
2021/10/10 07:31:10;;;;;;;16.08;7.78;;;7.80;95.40;;;;;;5093307;28;20481;-80
2021/10/10 07:33:35;;;;;;;12.95;6.75;;;7.90;95.50;;;;;;5092547;28;20487;-81
2021/10/10 07:36:01;;;;;;;15.10;7.47;;;7.80;95.50;;;;;;5092956;28;20032;-80
2021/10/10 07:38:27;;;;;;;15.02;6.88;;;7.90;95.70;;;;;;5093642;28;20028;-81
2021/10/10 07:40:52;;;;;;;16.48;7.07;;;8.00;95.40;;;;;;5093491;28;20035;-81
2021/10/10 07:43:20;;;;;;;19.08;7.78;;;8.00;95.80;;;;;;5092647;28;20035;-80
2021/10/10 07:45:47;;;;;;;16.23;7.07;;;8.10;95.50;;;;;;5092235;28;20059;-81
2021/10/10 07:48:13;;;;;;;12.68;7.30;;;8.10;95.40;;;;;;5092220;28;20024;-80
2021/10/10 07:50:39;;;;;;;12.05;6.55;;;8.10;95.20;;;;;;5093088;28;20095;-81
2021/10/10 07:53:06;;;;;;;10.95;6.60;;;8.10;95.40;;;;;;5092600;28;20046;-81
2021/10/10 07:55:31;;;;;;;13.55;7.10;;;8.20;95.40;;;;;;5092515;28;20028;-87
2021/10/10 07:58:00;;;;;;;14.55;7.22;;;8.30;95.30;;;;;;5093140;28;20044;-81
2021/10/10 08:00:30;;;;;;;14.52;6.78;;;8.30;95.30;;;;;;5092487;28;20119;-80
2021/10/10 08:02:58;;;;;;;13.68;6.97;;;8.40;95.10;;;;;;5091954;28;20043;-80
2021/10/10 08:05:25;;;;;;;19.33;8.48;;;8.40;95.10;;;;;;5092753;28;20082;-81
2021/10/10 08:07:52;;;;;;;13.07;7.55;;;8.50;95.00;;;;;;5092321;28;20381;-81
2021/10/10 08:10:18;;;;;;;15.88;7.18;;;8.50;95.00;;;;;;5096150;28;20115;-81
2021/10/10 08:12:44;;;;;;;13.27;7.07;;;8.60;95.30;;;;;;5095630;28;20115;-81
2021/10/10 08:15:10;;;;;;;13.00;6.30;;;8.60;95.30;;;;;;5097131;28;20038;-82
2021/10/10 08:17:37;;;;;;;17.95;6.90;;;8.70;95.30;;;;;;5096526;28;20484;-82
2021/10/10 08:20:04;;;;;;;16.60;6.68;;;8.70;95.20;;;;;;5096102;28;20051;-81
2021/10/10 08:22:33;;;;;;;12.48;6.70;;;8.80;95.20;;;;;;5096801;28;20024;-81
2021/10/10 08:24:59;;;;;;;12.70;7.05;;;8.80;95.00;;;;;;5095766;28;20024;-81
2021/10/10 08:27:24;;;;;;;12.98;6.97;;;8.90;95.10;;;;;;5096774;28;20028;-81
2021/10/10 08:29:50;;;;;;;12.35;6.85;;;9.00;94.90;;;;;;5095362;28;20484;-81
2021/10/10 08:32:16;;;;;;;12.90;6.57;;;9.00;94.90;;;;;;5095864;28;20020;-82
2021/10/10 08:34:41;;;;;;;12.70;6.45;;;9.00;94.90;;;;;;5096388;28;20028;-81
2021/10/10 08:37:07;;;;;;;13.38;6.28;;;9.10;95.20;;;;;;5095922;28;20058;-81
2021/10/10 08:39:32;;;;;;;14.70;6.65;;;9.20;95.20;;;;;;5096021;28;20457;-81
2021/10/10 08:42:02;;;;;;;13.98;7.10;;;9.20;95.00;;;;;;5095480;28;20469;-81
2021/10/10 08:44:37;;;;;;;12.63;6.60;;;9.30;94.90;;;;;;5095368;28;20035;-81
2021/10/10 08:47:05;;;;;;;14.55;6.57;;;9.40;95.20;;;;;;5095859;28;20460;-81
2021/10/10 08:49:31;;;;;;;14.20;6.63;;;9.40;94.80;;;;;;5095315;28;20456;-81
2021/10/10 08:52:02;;;;;;;13.30;6.65;;;9.50;94.60;;;;;;5095245;28;20073;-81
2021/10/10 08:54:27;;;;;;;11.15;6.68;;;9.50;94.60;;;;;;5095280;28;20024;-81
2021/10/10 08:56:54;;;;;;;13.07;6.85;;;9.60;94.50;;;;;;5094638;28;20515;-81
2021/10/10 08:59:21;;;;;;;14.52;7.15;;;9.60;94.30;;;;;;5096352;28;20190;-80
2021/10/10 09:01:48;;;;;;;16.40;6.90;;;9.70;94.40;;;;;;5095042;28;20492;-81
2021/10/10 09:04:14;;;;;;;14.40;7.45;;;9.80;94.50;;;;;;5096514;28;20479;-81
2021/10/10 09:06:43;;;;;;;11.27;6.50;;;9.80;94.60;;;;;;5094494;28;20036;-81
2021/10/10 09:09:30;;;;;;;13.02;6.78;;;9.90;94.40;;;;;;5094947;28;20031;-81
2021/10/10 09:12:08;;;;;;;12.07;6.60;;;10.00;94.10;;;;;;5094548;28;20412;-81
2021/10/10 09:14:52;;;;;;;12.40;6.50;;;10.00;94.00;;;;;;5095135;28;20020;-81
2021/10/10 09:17:19;;;;;;;12.68;6.95;;;10.10;93.90;;;;;;5095413;28;20024;-81
2021/10/10 09:19:58;;;;;;;13.65;6.35;;;10.20;93.70;;;;;;5094090;28;20028;-81
2021/10/10 09:22:26;;;;;;;13.13;6.50;;;10.20;93.80;;;;;;5095248;28;20024;-80
2021/10/10 09:24:56;;;;;;;14.57;7.00;;;10.20;93.70;;;;;;5095178;28;20066;-81
2021/10/10 09:27:26;;;;;;;13.45;6.80;;;10.30;93.40;;;;;;5094879;28;20161;-81
2021/10/10 09:29:53;;;;;;;12.32;6.28;;;10.40;93.20;;;;;;5095270;28;20088;-81
2021/10/10 09:32:24;;;;;;;11.80;6.43;;;10.40;93.20;;;;;;5094383;28;20028;-81
2021/10/10 09:34:50;;;;;;;12.70;6.22;;;10.40;92.90;;;;;;5093691;28;20118;-81
2021/10/10 09:37:23;;;;;;;13.90;6.68;;;10.50;92.80;;;;;;5094086;28;20032;-81
2021/10/10 09:42:44;;;;;;;12.98;6.65;;;10.70;93.70;;;;;;5095239;28;20124;-86
2021/10/10 09:45:22;;;;;;;18.80;6.90;;;10.80;93.80;;;;;;5094639;28;20073;-81
2021/10/10 09:47:55;;;;;;;12.05;6.50;;;10.80;93.00;;;;;;5093939;28;20469;-81
2021/10/10 09:50:21;;;;;;;12.15;6.45;;;10.90;92.30;;;;;;5095287;28;20054;-80
2021/10/10 09:53:02;;;;;;;10.38;6.53;;;10.90;92.30;;;;;;5094250;28;20039;-81
2021/10/10 09:55:30;;;;;;;12.63;6.13;;;11.00;92.30;;;;;;5094238;28;20056;-80
2021/10/10 09:57:56;;;;;;;12.73;6.50;;;11.00;92.00;;;;;;5093195;28;20131;-80
2021/10/10 10:00:34;;;;;;;14.75;6.70;;;11.10;92.10;;;;;;5093882;28;20024;-81
2021/10/10 10:03:02;;;;;;;11.18;5.97;;;11.10;91.70;;;;;;5094589;28;20067;-81
2021/10/10 10:05:32;;;;;;;12.98;5.90;;;11.10;91.90;;;;;;5094130;28;20036;-81
2021/10/10 10:07:59;;;;;;;10.55;6.38;;;11.20;92.80;;;;;;5093814;28;20054;-80
2021/10/10 10:10:28;;;;;;;12.70;6.70;;;11.30;92.20;;;;;;5095156;28;20031;-81
2021/10/10 10:12:55;;;;;;;10.68;6.07;;;11.30;91.30;;;;;;5093165;28;20388;-81
2021/10/10 10:15:27;;;;;;;10.05;5.90;;;11.40;91.20;;;;;;5094696;28;20023;-81
2021/10/10 10:17:53;;;;;;;11.95;6.15;;;11.50;91.10;;;;;;5094371;28;20069;-81
2021/10/10 10:20:20;;;;;;;10.00;6.30;;;11.50;91.10;;;;;;5094867;28;20039;-81
2021/10/10 10:22:48;;;;;;;13.20;6.35;;;11.50;91.20;;;;;;5094013;28;20020;-81
2021/10/10 10:25:14;;;;;;;10.68;5.80;;;11.60;91.60;;;;;;5094621;28;20017;-80
2021/10/10 10:27:40;;;;;;;16.02;6.50;;;11.60;90.90;;;;;;5093618;28;20031;-81
2021/10/10 10:30:07;;;;;;;14.23;6.20;;;11.60;90.90;;;;;;5093823;28;20032;-81
2021/10/10 10:32:34;;;;;;;10.48;5.78;;;11.70;90.90;;;;;;5092912;28;20036;-81
2021/10/10 10:35:18;;;;;;;9.55;5.20;;;11.80;90.90;;;;;;5092997;28;20477;-81
2021/10/10 10:37:44;;;;;;;10.60;5.85;;;11.70;90.30;;;;;;5093424;28;20123;-81
2021/10/10 10:40:29;;;;;;;11.15;5.70;;;11.70;90.70;;;;;;5094219;28;20108;-81
2021/10/10 10:42:57;;;;;;;11.15;5.43;;;11.70;90.70;;;;;;5093003;28;20381;-82
2021/10/10 10:45:28;;;;;;;15.07;6.18;;;11.80;90.40;;;;;;5094626;28;20024;-81
2021/10/10 10:47:59;;;;;;;17.63;6.20;;;11.90;90.60;;;;;;5092950;28;20035;-82
2021/10/10 10:50:27;;;;;;;11.48;5.85;;;12.00;90.20;;;;;;5093378;28;20028;-81
2021/10/10 10:52:58;;;;;;;8.52;5.18;;;12.00;89.20;;;;;;5093994;28;20028;-81
2021/10/10 10:55:26;;;;;;;9.97;5.53;;;12.10;88.90;;;;;;5093517;28;20028;-81
2021/10/10 10:57:56;;;;;;;10.38;5.60;;;12.10;88.20;;;;;;5092623;28;20058;-81
2021/10/10 11:00:27;;;;;;;13.77;5.78;;;12.20;87.80;;;;;;5093422;28;20049;-81
2021/10/10 11:03:19;;;;;;;10.32;5.65;;;12.20;87.00;;;;;;5092698;28;20036;-81
2021/10/10 11:06:20;;;;;;;10.57;5.03;;;12.40;88.20;;;;;;5093002;28;20044;-82
2021/10/10 11:08:46;;;;;;;14.43;5.35;;;12.40;88.00;;;;;;5089348;28;20033;-81
2021/10/10 11:11:17;;;;;;;10.73;5.30;;;12.50;86.20;;;;;;5093400;28;20028;-81
2021/10/10 11:14:02;;;;;;;11.07;5.25;;;12.60;86.20;;;;;;5093671;28;20024;-87
2021/10/10 11:16:31;;;;;;;9.02;5.10;;;12.70;86.70;;;;;;5093277;28;20047;-81
2021/10/10 11:19:08;;;;;;;9.93;4.97;;;12.80;85.60;;;;;;5092443;28;20020;-81
2021/10/10 11:21:39;;;;;;;11.27;5.50;;;12.90;86.20;;;;;;5093106;28;20024;-81
2021/10/10 11:24:10;;;;;;;10.73;5.88;;;13.00;84.30;;;;;;5092596;28;20032;-81
2021/10/10 11:26:38;;;;;;;9.95;4.80;;;13.10;85.20;;;;;;5093232;28;20052;-80
2021/10/10 11:29:09;;;;;;;9.77;5.13;;;13.20;85.30;;;;;;5092551;28;20211;-81
2021/10/10 11:31:36;;;;;;;9.90;5.57;;;13.20;83.80;;;;;;5093125;28;20032;-81
2021/10/10 11:34:04;;;;;;;8.25;4.90;;;13.10;83.60;;;;;;5093445;28;20057;-80
2021/10/10 11:36:47;;;;;;;11.43;4.88;;;13.20;85.30;;;;;;5092783;28;20039;-81
2021/10/10 11:39:16;;;;;;;8.50;4.70;;;13.20;84.60;;;;;;5093827;28;20095;-80
2021/10/10 11:41:48;;;;;;;9.52;4.53;;;13.50;83.40;;;;;;5092894;28;20073;-81
2021/10/10 11:44:26;;;;;;;13.05;5.85;;;13.50;82.60;;;;;;5095753;28;20031;-81
2021/10/10 11:46:58;;;;;;;8.27;4.90;;;13.70;82.10;;;;;;5095890;28;20077;-81
2021/10/10 11:49:24;;;;;;;10.07;4.95;;;13.60;81.40;;;;;;5097024;28;20123;-81
2021/10/10 11:51:51;;;;;;;9.32;4.78;;;13.70;78.80;;;;;;5096172;28;20440;-81
2021/10/10 11:54:38;;;;;;;10.50;5.03;;;13.80;79.10;;;;;;5097563;28;20069;-81
2021/10/10 11:57:06;;;;;;;9.35;4.78;;;14.00;78.00;;;;;;5095756;28;20079;-81
2021/10/10 11:59:32;;;;;;;12.02;5.43;;;14.20;78.30;;;;;;5096593;28;20028;-80
2021/10/10 12:01:57;;;;;;;10.05;4.82;;;14.30;76.70;;;;;;5095874;28;20500;-81
2021/10/10 12:04:24;;;;;;;7.80;4.78;;;14.50;76.90;;;;;;5096080;28;20028;-81
2021/10/10 12:06:51;;;;;;;9.95;4.65;;;14.70;76.50;;;;;;5095861;28;20036;-81
2021/10/10 12:09:17;;;;;;;8.35;4.38;;;15.00;75.20;;;;;;5096278;28;20480;-81
2021/10/10 12:12:12;;;;;;;10.32;5.03;;;15.20;75.60;;;;;;5097031;28;20028;-80
2021/10/10 12:14:49;;;;;;;10.90;4.95;;;15.50;73.40;;;;;;5096167;28;20055;-81
2021/10/10 12:17:35;;;;;;;11.02;5.32;;;15.70;72.40;;;;;;5097143;28;20123;-79
2021/10/10 12:20:25;;;;;;;10.95;5.05;;;15.90;70.50;;;;;;5098119;28;20117;-81
2021/10/10 12:23:05;;;;;;;11.02;5.00;;;16.00;68.30;;;;;;5098856;28;20051;-81
2021/10/10 12:25:31;;;;;;;9.88;4.72;;;16.30;69.10;;;;;;5096678;28;20024;-81
2021/10/10 12:27:59;;;;;;;13.80;5.30;;;16.50;68.80;;;;;;5096341;28;20028;-81
2021/10/10 12:30:31;;;;;;;10.15;5.18;;;16.70;68.80;;;;;;5096757;28;20024;-80
2021/10/10 12:32:57;;;;;;;;;;;16.80;65.50;;;;;;5095614;28;20020;-80
2021/10/10 12:35:24;;;;;;;8.05;4.85;;;17.00;62.70;;;;;;5095959;28;19957;-81
2021/10/10 12:37:51;;;;;;;10.02;5.63;;;17.20;64.00;;;;;;5095321;28;20028;-82
2021/10/10 12:40:27;;;;;;;12.05;5.88;;;17.40;62.30;;;;;;5095660;28;20024;-81
2021/10/10 12:42:54;;;;;;;12.00;5.22;;;17.80;61.00;;;;;;5094688;28;20089;-81
2021/10/10 12:45:40;;;;;;;9.88;5.13;;;18.40;60.40;;;;;;5095265;28;20035;-81
2021/10/10 12:48:09;;;;;;;11.88;5.22;;;18.80;58.00;;;;;;5095984;28;20032;-81
2021/10/10 12:50:57;;;;;;;10.27;5.30;;;19.40;55.40;;;;;;5095273;28;20421;-80
2021/10/10 12:53:34;;;;;;;11.23;5.15;;;19.80;53.80;;;;;;5095652;28;20385;-80
2021/10/10 12:56:19;;;;;;;10.82;5.35;;;20.10;51.90;;;;;;5095595;28;20028;-81
2021/10/10 12:58:50;;;;;;;9.15;4.97;;;20.30;52.30;;;;;;5095417;28;20032;-80